This is the latest recevied weather packets stored in our database for station/object N5DGC. If no packets are shown the sender has not sent any weather packets the latest 1 day(s).
| Time | Temp. | Humidity | Pressure | Rain* | Wind** | Luminosity | Snow |
|---|---|---|---|---|---|---|---|
| 1778081650 | 14.44° C | 38% | 1234.5 hPa | 0 mm | - | 609 W/m² | - |
| 1778081044 | 13.89° C | 40% | 1234.5 hPa | 0 mm | - | 574 W/m² | - |
| 1778080439 | 13.89° C | 39% | 1234.8 hPa | 0 mm | - | 538 W/m² | - |
| 1778078015 | 10° C | 51% | 1234.8 hPa | 0 mm | - | 68 W/m² | - |
| 1778077411 | 9.44° C | 54% | 1235.1 hPa | 0 mm | - | 46 W/m² | - |
| 1778076807 | 8.89° C | 57% | 1235.1 hPa | 0 mm | - | 48 W/m² | - |
| 1778076505 | 8.89° C | 58% | 1235.1 hPa | 0 mm | - | 45 W/m² | - |
| 1778074988 | 8.33° C | 61% | 1235.1 hPa | 0 mm | - | 35 W/m² | - |
| 1778073474 | 5.56° C | 68% | 1234.8 hPa | 0 mm | - | 29 W/m² | - |
| 1778073169 | 5.56° C | 68% | 1234.6 hPa | 0 mm | - | 26 W/m² | - |
| 1778071959 | 6.11° C | 66% | 1234.6 hPa | 0 mm | - | 30 W/m² | - |
| 1778070144 | 3.89° C | 75% | 1234.2 hPa | 0 mm | - | 6 W/m² | - |
| 1778069842 | 3.89° C | 77% | 1234.2 hPa | 0 mm | - | 4 W/m² | - |
| 1778069236 | 3.33° C | 77% | 1234.4 hPa | 0 mm | - | 2 W/m² | - |
| 1778067724 | 3.89° C | 75% | 1234.1 hPa | 0 mm | - | 0 W/m² | - |
| 1778065303 | 3.89° C | 76% | 1233.6 hPa | 0 mm | - | 0 W/m² | - |
| 1778064999 | 3.89° C | 76% | 1233.8 hPa | 0 mm | - | 0 W/m² | - |
| 1778064696 | 3.89° C | 76% | 1233.4 hPa | 0 mm | - | 0 W/m² | - |
| 1778063789 | 3.89° C | 76% | 1233.4 hPa | 0 mm | - | 0 W/m² | - |
| 1778063486 | 3.89° C | 76% | 1233.5 hPa | 0 mm | - | 0 W/m² | - |
| 1778063184 | 3.89° C | 76% | 1233.5 hPa | 0 mm | - | 0 W/m² | - |
| 1778062881 | 4.44° C | 75% | 1233.2 hPa | 0 mm | - | 0 W/m² | - |
| 1778062274 | 4.44° C | 75% | 1233.3 hPa | 0 mm | - | 0 W/m² | - |
| 1778061973 | 4.44° C | 75% | 1233.3 hPa | 0 mm | - | 0 W/m² | - |
| 1778060763 | 4.44° C | 74% | 1233.3 hPa | 0 mm | - | 0 W/m² | - |
* Rain latest hour (hover to see other rain measurements)
** Current wind speed in m/s (hover to see current wind gust speed)